Pagrindinis puslapis
METAR-TAF:

METAR-TAF

Oro uostai :

Jezdas, Iranas

platuma: 31-54N, ilguma: 054-24E, Aukštis: 1238 m

Dabartinis oras

Ataskaita buvo paskelbta 40 minutes, ne 20:00 UTC
Vėjas 2 kt iš Pietų/Pietvakarių
Temperatūra 9°C
Drėgmė 37%
Slėgis 1021 hPa
Matomumas 10 km arba daugiau
nėra debesų žemiau 1500 m ir nėra kamuolinių lietaus debesų

METAR: OIYY 212000Z 20002KT CAVOK 09/M05 Q1021

Laikas: 00:10 (20:40 UTC)

Prognozė

Ataskaita buvo paskelbta 30 minutes, ne 20:10 UTC
Prognozė galioja nuo 21 metu 21 UTC su 22 metu 06 UTC
Vėjas 6 kt iš Pietryčių
Matomumas: 8000 m

TAF: OIYY 212010Z 2121/2206 13006KT 8000 NSC

Orai ataskaitas ir orų prognozės (METAR, TAF).

turimą stotys yra geltonos ir raudonos taškus žemėlapyje.

Perkelti pele per norėdami pamatyti stoties vardą.

Tada spustelėkite, norėdami matyti oro stebėjimo ir prognozės.

Norėdami pakeisti žemėlapį: spustelėkite ant žalios mygtukų su juodo kryžiaus žemyn,; žalią mygtuką su brūkšneliu, jei norite nutolinti; arba žalių rodyklių gretimoms žemėlapius.


METAR-TAF: